Warning: Javascript must be enabled to use all the features on this page!


Page Loading - Please Wait...

Click to hideNews Bulletins

Peak Streamflow for the Nation

USGS 01478000 CHRISTINA RIVER AT COOCHS BRIDGE, DE

New Castle County, Delaware
Hydrologic Unit Code 02040205
Latitude  39°38'14.6", Longitude  75°43'40.4" NAD83
Drainage area 20.5  square miles
Gage datum 24.52 feet above NAVD88
Output formats
Table
Graph
Tab-separated file
peakfq (watstore) format
Reselect output format
Water
Year
Date Gage
Height
(feet)
Stream-
flow
(cfs)
1943 1943-05-21 10.55 2,150
1944 1944-04-24 9.98 1,280
1945 1945-08-01 10.84 2,620
1946 1946-07-23 10.29 1,680
1947 1947-05-01 12.41 4,330
1948 1948-01-02 9.87 1,170
1949 1948-12-30 10.29 1,680
1950 1950-03-23 9.67 1,000
1951 1950-11-25 10.17 1,500
1952 1952-07-09 10.91 2,730
1953 1953-01-24 10.23 1,590
1954 1953-12-14 9.87 1,170
1955 1955-08-18 11.29 3,250
1956 1956-07-21 10.44 1,950
1957 1956-11-02 10.01 1,310
1958 1958-02-28 10.09 1,390
1959 1959-09-03 9.59 955
1960 1960-09-12 11.33 3,300
1961 1961-04-13 9.92 1,220
1962 1962-03-12 9.95 1,250
1963 1963-03-06 8.65 638
1964 1964-01-09 10.22 1,570
1965 1965-02-08 9.63 978
1966 1966-02-13 10.27 1,650
1967 1967-08-10 10.83 2,610
1968 1968-01-14 10.57 2,190
1969 1969-06-03 9.89 1,190
1970 1970-04-02 10.29 1,680
1971 1971-02-13 10.53 2,110
1972 1972-06-22 11.35 3,320
1973 1972-11-14 10.70 2,400
1974 1973-12-21 10.42 1,920
1975 1975-07-14 10.76 2,500
1976 1975-10-19 9.96 1,260
1977 1977-03-22 10.42 1,900
1978 1978-01-26 11.01 2,860
1979 1979-02-25 10.87 2,670
1980 1979-11-26 10.57 1,670
1981 1981-05-15 10.04 1,140
1982 1982-06-13 10.71 1,820
1983 1983-03-21 11.29 2,410
1984 1983-12-12 10.99 2,100
1985 1985-09-27 10.98 2,090
1986 1985-11-29 9.00 700
1987 1986-12-25 11.01 2,110
1988 1988-05-19 11.62 2,770
1989 1989-07-05 13.12 5,530
1990 1990-05-29 11.45 1,620
1991 1991-01-12 11.04 1,400
1992 1992-05-08 10.76 1,250
1993 1993-03-04 11.37 1,580
1994 1994-01-28 12.19 2,340
1995 1995-01-20 11.66 1,790
1996 1996-01-19 11.78 1,910
1997 1996-10-19 11.71 1,840
1998 1998-01-23 11.24 1,500
1999 1999-09-16 13.73 7,050
2000 2000-03-22 12.00 2,130
2001 2000-12-17 12.20 2,350
2002 2002-08-29 8.85 629
2003 2003-02-22 12.19 2,340
2004 2004-09-29 13.43 5,430
2005 2005-03-28 11.92 1,910
2006 2006-06-28 11.99 1,990
2007 2007-04-15 11.79 1,770
2008 2008-02-13 10.96 1,080
2009 2008-12-12 11.31 1,330
2010 2009-12-09 11.96 1,970
2011 2011-08-28 13.89 7,780
2012 2012-06-13 12.00 1,540
2013 2013-06-28 12.89 2,610
2014 2014-04-30 12.67 2,250
2015 2015-06-27 12.15 1,660
2016 2016-02-25 11.45 1,220
2017 2017-07-24 12.21 1,710
2018 2018-08-13 12.11 1,690
2019 2018-11-25 12.39 1,940
2020 2020-08-04 14.00 9,000